Martinsburg Airport

About
Name: Martinsburg Airport
Identifier:  MRB/KMRB
Local Time:  18. Aug 08:53 EDT
Location
Martinsburg
  United States

Flights per Day
0 flights
Distance: 267km (166mi)
Punctuality
50% (0 flights per day delayed)
Delay Average: 20 minutes
Current Weather
 23 C (Humidity: 88%)
  0kt (0km/h / 0mph) from 0°
  11km (7 mi.)
 
 METAR KMRB 181153Z 00000KT 7SM CLR 23/21 A3002 RMK AO2 SLP160 T02280211 10233 20194 53009 $

Current Flights

Departures
Number Departure To Airline
Arrivals
Number Arrival From Airline

Current Delays

Departures
N/A
Arrivals
N/A

Destinations

Top Destinations
Airport Flights
per week
Seats
per week
  Gaithersburg (GAI) 2 - 0 0
  Washington (IAD) 2 - 0 0
  White Plains (HPN) 1 - 0 0
  Frederick (FDK) 1 - 0 0
  Morgantown (MGW) 0 - 0 0
  Charlottesville (CHO) 0 - 0 0
  Cleveland (CLE) 0 - 0 0
  Raleigh-Durham (RDU) 0 - 0 0
  Winchester (WGO) 0 - 0 0
  Provincetown (PVC) 0 - 0 0

Airlines & Planes

Top Airlines
Airline Flights
per Day
Seats
per Day
Nordwind Airlines 1 -
  Novair 0 -
  Flybe Nordic 0 -
  Nolinor Aviation 0 -
Jet Charter Inc ( Franklin Lakes Nj ) 0 -
  National Airlines 0 -
Top Plane Types
Model Flights Seats
Beech B200 Super King Air 1.1/day - 0
Cessna C172 0.4/day - 0
Beech E90 King Air 0.3/day - 0
Cirrus SR22 0.2/day - 0
Cessna C182 0.1/day - 0
Piper PA28-181 0.1/day - 0
Piper PA-31-350 0.1/day - 0
Gulfstream Gulfstream G200 0.1/day - 0
Piper PA-32R-301T Saratoga II 0.1/day - 0